createdAt,value
2023-01-28T00:02:13.499Z,99916.47
2023-01-28T00:04:41.189Z,99921.59
2023-01-28T00:07:08.548Z,99921.81
2023-01-28T00:09:35.945Z,99924.22
2023-01-28T00:12:03.720Z,99928.62
2023-01-28T00:14:31.111Z,99923.41
2023-01-28T00:16:58.494Z,99929.66
2023-01-28T00:19:26.197Z,99930.03
2023-01-28T00:21:53.609Z,99934.34
2023-01-28T00:24:21.118Z,99931.06
2023-01-28T00:26:48.839Z,99939.41
2023-01-28T00:29:16.253Z,99933.81
2023-01-28T00:31:44.604Z,99933.00
2023-01-28T00:34:12.457Z,99934.97
2023-01-28T00:36:42.193Z,99931.31
2023-01-28T00:39:15.277Z,99932.50
2023-01-28T00:41:43.107Z,99936.06
2023-01-28T00:44:10.490Z,99940.00
2023-01-28T00:46:37.921Z,99939.34
2023-01-28T00:49:05.622Z,99942.59
2023-01-28T00:51:34.710Z,99943.03
2023-01-28T00:54:02.157Z,99948.19
2023-01-28T00:56:29.860Z,99942.25
2023-01-28T00:58:57.338Z,99945.56
2023-01-28T01:01:27.265Z,99953.88
2023-01-28T01:04:02.652Z,99950.81
2023-01-28T01:06:32.825Z,99948.03
2023-01-28T01:09:01.188Z,99946.16
2023-01-28T01:11:28.700Z,99951.62
2023-01-28T01:13:57.862Z,99949.84
2023-01-28T01:16:28.499Z,99947.47
2023-01-28T01:18:56.628Z,99944.75
2023-01-28T01:21:27.901Z,99945.81
2023-01-28T01:23:55.685Z,99946.78
2023-01-28T01:26:23.690Z,99942.63
2023-01-28T01:28:51.840Z,99942.34
2023-01-28T01:31:20.731Z,99954.34
2023-01-28T01:33:50.574Z,99949.16
2023-01-28T01:36:19.629Z,99953.66
2023-01-28T01:38:47.693Z,99954.16
2023-01-28T01:41:40.274Z,99954.53
2023-01-28T01:44:46.441Z,99942.28
2023-01-28T01:47:14.470Z,99948.22
2023-01-28T01:49:42.371Z,99950.97
2023-01-28T01:52:17.733Z,99951.88
2023-01-28T01:54:47.587Z,99949.84
2023-01-28T01:57:17.428Z,99952.50
2023-01-28T01:59:45.122Z,99954.50
2023-01-28T02:02:12.968Z,99963.19
2023-01-28T02:04:44.491Z,99959.53
2023-01-28T02:07:16.419Z,99957.91
2023-01-28T02:09:44.159Z,99957.47
2023-01-28T02:12:14.841Z,99956.19
2023-01-28T02:14:45.876Z,99957.00
2023-01-28T02:17:15.755Z,99961.28
2023-01-28T02:19:48.770Z,99963.13
2023-01-28T02:22:47.406Z,99957.56
2023-01-28T02:25:33.806Z,99953.53
2023-01-28T02:28:16.531Z,99954.78
2023-01-28T02:31:11.444Z,99956.59
2023-01-28T02:34:08.910Z,99954.06
2023-01-28T02:36:44.542Z,99955.19
2023-01-28T02:39:20.266Z,99945.50
2023-01-28T02:41:52.318Z,99952.53
2023-01-28T02:44:20.006Z,99953.09
2023-01-28T02:47:06.087Z,99951.59
2023-01-28T02:49:39.705Z,99946.69
2023-01-28T02:52:54.074Z,99941.56
2023-01-28T02:55:45.575Z,99941.09
2023-01-28T02:58:19.260Z,99951.62
2023-01-28T03:00:51.080Z,99957.44
2023-01-28T03:03:36.419Z,99951.84
2023-01-28T03:06:11.443Z,99951.84
2023-01-28T03:09:02.526Z,99953.00
2023-01-28T03:11:52.506Z,99945.25
2023-01-28T03:14:39.105Z,99955.97
2023-01-28T03:17:30.657Z,99958.94
2023-01-28T03:20:16.706Z,99959.38
2023-01-28T03:23:07.732Z,99961.56
2023-01-28T03:25:54.652Z,99962.31
2023-01-28T03:28:40.892Z,99950.41
2023-01-28T03:31:33.764Z,99953.09
2023-01-28T03:34:21.262Z,99959.78
2023-01-28T03:36:55.608Z,99959.06
2023-01-28T03:39:30.005Z,99958.72
2023-01-28T03:42:13.658Z,99953.66
2023-01-28T03:44:54.760Z,99966.22
2023-01-28T03:47:24.604Z,99970.63
2023-01-28T03:49:54.471Z,99965.66
2023-01-28T03:52:24.785Z,99963.53
2023-01-28T03:54:53.127Z,99973.66
2023-01-28T03:57:23.219Z,99970.84
2023-01-28T03:59:52.681Z,99968.63
2023-01-28T04:02:21.717Z,99970.94
2023-01-28T04:04:50.482Z,99978.13
2023-01-28T04:07:18.649Z,99968.88
2023-01-28T04:09:51.486Z,99974.59
2023-01-28T04:12:18.929Z,99963.66
2023-01-28T04:14:47.098Z,99973.38
2023-01-28T04:17:14.807Z,99962.63
2023-01-28T04:19:43.703Z,99974.78
2023-01-28T04:22:12.050Z,99974.12
2023-01-28T04:24:40.165Z,99972.22
2023-01-28T04:27:07.578Z,99970.53
2023-01-28T04:29:34.969Z,99976.91
2023-01-28T04:32:04.001Z,99977.34
2023-01-28T04:34:32.331Z,99984.09
2023-01-28T04:37:00.104Z,99975.75
2023-01-28T04:39:28.562Z,99978.53
2023-01-28T04:41:58.638Z,99985.19
2023-01-28T04:44:26.931Z,99975.44
2023-01-28T04:46:55.061Z,99985.69
2023-01-28T04:49:23.534Z,99988.53
2023-01-28T04:51:51.020Z,99991.19
2023-01-28T04:54:18.989Z,99982.41
2023-01-28T04:56:46.523Z,99990.41
2023-01-28T04:59:14.351Z,99985.63
2023-01-28T05:01:42.095Z,99997.56
2023-01-28T05:04:09.867Z,99986.25
2023-01-28T05:06:37.428Z,99991.06
2023-01-28T05:09:05.482Z,100002.63
2023-01-28T05:11:33.601Z,99998.75
2023-01-28T05:14:02.368Z,100001.69
2023-01-28T05:16:32.026Z,100001.75
2023-01-28T05:18:59.711Z,100008.91
2023-01-28T05:21:30.418Z,100008.62
2023-01-28T05:23:58.557Z,100017.69
2023-01-28T05:26:26.008Z,100015.38
2023-01-28T05:28:53.753Z,100013.09
2023-01-28T05:31:21.209Z,100002.53
2023-01-28T05:33:48.616Z,100010.72
2023-01-28T05:36:17.004Z,100018.75
2023-01-28T05:38:44.394Z,100015.47
2023-01-28T05:41:11.777Z,100015.00
2023-01-28T05:43:39.874Z,100016.59
2023-01-28T05:46:08.745Z,100014.91
2023-01-28T05:48:36.324Z,100016.16
2023-01-28T05:51:05.315Z,100022.72
2023-01-28T05:53:32.918Z,100018.81
2023-01-28T05:56:00.634Z,100023.50
2023-01-28T05:58:30.900Z,100024.53
2023-01-28T06:00:59.843Z,100021.84
2023-01-28T06:03:27.974Z,100025.81
2023-01-28T06:05:56.192Z,100025.75
2023-01-28T06:08:23.702Z,100029.84
2023-01-28T06:10:51.589Z,100030.91
2023-01-28T06:13:19.010Z,100032.59
2023-01-28T06:15:51.125Z,100038.97
2023-01-28T06:18:19.004Z,100039.88
2023-01-28T06:20:49.344Z,100041.78
2023-01-28T06:23:16.931Z,100051.44
2023-01-28T06:25:44.678Z,100053.69
2023-01-28T06:28:12.358Z,100047.88
2023-01-28T06:30:39.800Z,100053.09
2023-01-28T06:33:07.473Z,100057.47
2023-01-28T06:35:35.764Z,100054.09
2023-01-28T06:38:04.616Z,100066.44
2023-01-28T06:40:32.394Z,100063.84
2023-01-28T06:42:59.842Z,100075.63
2023-01-28T06:45:27.185Z,100065.84
2023-01-28T06:47:54.861Z,100078.72
2023-01-28T06:50:22.354Z,100084.78
2023-01-28T06:52:49.829Z,100076.16
2023-01-28T06:55:17.560Z,100085.22
2023-01-28T06:57:47.693Z,100088.78
2023-01-28T07:00:16.885Z,100087.16
2023-01-28T07:02:44.888Z,100094.41
2023-01-28T07:05:12.331Z,100094.78
2023-01-28T07:07:41.927Z,100098.19
2023-01-28T07:10:11.107Z,100108.34
2023-01-28T07:12:38.833Z,100104.09
2023-01-28T07:15:06.956Z,100103.00
2023-01-28T07:17:34.690Z,100107.91
2023-01-28T07:20:02.073Z,100107.75
2023-01-28T07:22:29.431Z,100112.91
2023-01-28T07:24:58.729Z,100111.13
2023-01-28T07:27:26.123Z,100126.13
2023-01-28T07:29:53.510Z,100124.56
2023-01-28T07:32:21.218Z,100135.25
2023-01-28T07:34:48.610Z,100124.13
2023-01-28T07:37:16.041Z,100125.28
2023-01-28T07:39:43.718Z,100133.31
2023-01-28T07:42:11.184Z,100126.72
2023-01-28T07:44:39.111Z,100127.50
2023-01-28T07:47:07.126Z,100128.13
2023-01-28T07:49:34.822Z,100126.50
2023-01-28T07:52:02.387Z,100132.66
2023-01-28T07:54:30.041Z,100127.34
2023-01-28T07:56:57.411Z,100122.81
2023-01-28T07:59:24.836Z,100123.22
2023-01-28T08:01:55.051Z,100127.97
2023-01-28T08:04:23.063Z,100129.91
2023-01-28T08:06:52.228Z,100133.00
2023-01-28T08:09:19.887Z,100135.00
2023-01-28T08:11:47.527Z,100140.31
2023-01-28T08:14:14.964Z,100144.91
2023-01-28T08:16:42.663Z,100134.16
2023-01-28T08:19:10.641Z,100144.41
2023-01-28T08:21:38.097Z,100133.00
2023-01-28T08:24:06.033Z,100125.28
2023-01-28T08:26:33.693Z,100130.09
2023-01-28T08:29:01.050Z,100138.34
2023-01-28T08:31:29.498Z,100139.78
2023-01-28T08:33:57.271Z,100141.50
2023-01-28T08:36:24.635Z,100141.75
2023-01-28T08:38:54.943Z,100146.06
2023-01-28T08:41:22.736Z,100159.47
2023-01-28T08:43:50.093Z,100157.88
2023-01-28T08:46:17.617Z,100164.06
2023-01-28T08:48:45.297Z,100160.44
2023-01-28T08:51:12.657Z,100158.34
2023-01-28T08:53:40.050Z,100165.19
2023-01-28T08:56:07.903Z,100166.03
2023-01-28T08:58:35.310Z,100157.12
2023-01-28T09:01:06.805Z,100171.41
2023-01-28T09:03:36.087Z,100169.91
2023-01-28T09:06:04.712Z,100173.28
2023-01-28T09:08:32.195Z,100176.53
2023-01-28T09:11:00.030Z,100176.50
2023-01-28T09:13:28.600Z,100180.94
2023-01-28T09:15:56.365Z,100178.06
2023-01-28T09:18:24.109Z,100182.44
2023-01-28T09:20:51.487Z,100182.97
2023-01-28T09:23:18.941Z,100182.84
2023-01-28T09:25:46.664Z,100181.62
2023-01-28T09:28:14.031Z,100192.16
2023-01-28T09:30:41.513Z,100186.81
2023-01-28T09:33:09.302Z,100194.47
2023-01-28T09:35:37.080Z,100188.12
2023-01-28T09:38:04.751Z,100195.81
2023-01-28T09:40:42.020Z,100191.78
2023-01-28T09:43:45.309Z,100188.97
2023-01-28T09:46:15.127Z,100190.56
2023-01-28T09:48:51.404Z,100192.38
2023-01-28T09:51:46.273Z,100189.09
2023-01-28T09:54:40.914Z,100189.00
2023-01-28T09:57:14.430Z,100191.59
2023-01-28T09:59:41.850Z,100189.00
2023-01-28T10:02:28.275Z,100190.09
2023-01-28T10:05:02.402Z,100189.16
2023-01-28T10:07:47.817Z,100184.16
2023-01-28T10:10:24.552Z,100180.44
2023-01-28T10:13:10.125Z,100180.34
2023-01-28T10:15:43.433Z,100174.06
2023-01-28T10:18:17.508Z,100174.09
2023-01-28T10:20:51.292Z,100177.31
2023-01-28T10:23:39.954Z,100175.94
2023-01-28T10:26:21.956Z,100182.97
2023-01-28T10:28:54.826Z,100178.09
2023-01-28T10:31:24.152Z,100175.59
2023-01-28T10:33:51.807Z,100178.66
2023-01-28T10:36:19.393Z,100179.50
2023-01-28T10:38:47.297Z,100179.84
2023-01-28T10:41:20.599Z,100178.22
2023-01-28T10:43:48.941Z,100179.97
2023-01-28T10:46:23.834Z,100178.31
2023-01-28T10:49:13.096Z,100177.06
2023-01-28T10:51:42.670Z,100178.41
2023-01-28T10:54:29.002Z,100179.66
2023-01-28T10:57:02.457Z,100178.66
2023-01-28T10:59:32.835Z,100173.09
2023-01-28T11:02:05.927Z,100177.75
2023-01-28T11:04:35.349Z,100175.50
2023-01-28T11:07:06.489Z,100172.94
2023-01-28T11:09:38.088Z,100182.06
2023-01-28T11:12:14.315Z,100178.22
2023-01-28T11:14:51.457Z,100169.28
2023-01-28T11:17:20.537Z,100172.94
2023-01-28T11:19:48.804Z,100174.28
2023-01-28T11:22:38.127Z,100172.50
2023-01-28T11:25:16.008Z,100167.88
2023-01-28T11:27:47.572Z,100163.78
2023-01-28T11:30:24.771Z,100169.06
2023-01-28T11:33:17.052Z,100160.19
2023-01-28T11:35:58.263Z,100172.56
2023-01-28T11:38:26.271Z,100166.94
2023-01-28T11:40:55.997Z,100165.50
2023-01-28T11:43:28.480Z,100158.97
2023-01-28T11:46:20.613Z,100159.34
2023-01-28T11:49:05.362Z,100164.53
2023-01-28T11:51:59.970Z,100167.66
2023-01-28T11:54:37.006Z,100164.53
2023-01-28T11:57:24.176Z,100161.25
2023-01-28T11:59:54.524Z,100156.97
2023-01-28T12:02:44.724Z,100165.09
2023-01-28T12:05:28.692Z,100154.44
2023-01-28T12:08:20.660Z,100154.03
2023-01-28T12:11:19.129Z,100155.25
2023-01-28T12:14:28.709Z,100157.84
2023-01-28T12:17:06.009Z,100152.47
2023-01-28T12:19:42.142Z,100143.56
2023-01-28T12:22:26.646Z,100148.56
2023-01-28T12:25:39.390Z,100148.87
2023-01-28T12:28:18.365Z,100145.59
2023-01-28T12:30:48.712Z,100144.00
2023-01-28T12:33:45.333Z,100147.44
2023-01-28T12:36:37.598Z,100148.91
2023-01-28T12:39:20.264Z,100144.88
2023-01-28T12:41:51.841Z,100152.84
2023-01-28T12:44:25.738Z,100153.34
2023-01-28T12:47:00.588Z,100156.63
2023-01-28T12:49:48.845Z,100153.69
2023-01-28T12:52:23.397Z,100153.25
2023-01-28T12:55:14.687Z,100154.88
2023-01-28T12:57:42.178Z,100149.59
2023-01-28T13:00:25.292Z,100152.53
2023-01-28T13:03:06.845Z,100155.84
2023-01-28T13:05:38.374Z,100158.63
2023-01-28T13:08:18.319Z,100154.66
2023-01-28T13:10:46.839Z,100161.75
2023-01-28T13:13:34.956Z,100167.16
2023-01-28T13:16:04.466Z,100166.78
2023-01-28T13:18:41.415Z,100178.78
2023-01-28T13:21:17.071Z,100171.78
2023-01-28T13:23:48.972Z,100172.75
2023-01-28T13:26:19.648Z,100171.44
2023-01-28T13:28:49.067Z,100177.56
2023-01-28T13:31:19.616Z,100173.50
2023-01-28T13:33:56.366Z,100177.72
2023-01-28T13:36:27.172Z,100181.47
2023-01-28T13:39:07.516Z,100181.16
2023-01-28T13:41:44.895Z,100186.53
2023-01-28T13:44:18.297Z,100187.25
2023-01-28T13:46:45.984Z,100186.97
2023-01-28T13:49:17.316Z,100192.41
2023-01-28T13:51:56.739Z,100193.13
2023-01-28T13:54:25.086Z,100194.34
2023-01-28T13:57:01.496Z,100202.63
2023-01-28T13:59:35.160Z,100205.56
2023-01-28T14:02:40.329Z,100203.63
2023-01-28T14:05:45.345Z,100204.66
2023-01-28T14:08:53.894Z,100205.78
2023-01-28T14:11:53.561Z,100203.53
2023-01-28T14:14:38.250Z,100210.78
2023-01-28T14:17:43.237Z,100207.75
2023-01-28T14:20:18.376Z,100210.28
2023-01-28T14:22:46.702Z,100212.81
2023-01-28T14:25:17.552Z,100210.50
2023-01-28T14:27:48.089Z,100221.75
2023-01-28T14:30:37.701Z,100227.69
2023-01-28T14:33:10.039Z,100226.97
2023-01-28T14:35:39.984Z,100233.56
2023-01-28T14:38:09.380Z,100230.00
2023-01-28T14:40:38.531Z,100231.59
2023-01-28T14:43:08.369Z,100232.41
2023-01-28T14:45:55.477Z,100231.13
2023-01-28T14:48:48.416Z,100234.28
2023-01-28T14:51:34.527Z,100237.25
2023-01-28T14:54:43.818Z,100244.78
2023-01-28T14:57:39.553Z,100237.66
2023-01-28T15:00:22.175Z,100254.09
2023-01-28T15:02:49.699Z,100247.94
2023-01-28T15:05:21.583Z,100248.44
2023-01-28T15:07:49.266Z,100253.31
2023-01-28T15:10:21.302Z,100247.69
2023-01-28T15:12:52.662Z,100260.19
2023-01-28T15:15:20.302Z,100253.16
2023-01-28T15:17:48.388Z,100259.69
2023-01-28T15:20:21.418Z,100263.63
2023-01-28T15:22:50.039Z,100269.44
2023-01-28T15:25:19.464Z,100263.31
2023-01-28T15:27:47.712Z,100274.41
2023-01-28T15:30:30.159Z,100276.91
2023-01-28T15:33:13.583Z,100280.25
2023-01-28T15:35:48.690Z,100278.44
2023-01-28T15:38:17.898Z,100280.94
2023-01-28T15:40:48.885Z,100290.56
2023-01-28T15:43:29.001Z,100285.44
2023-01-28T15:45:58.314Z,100290.34
2023-01-28T15:48:28.587Z,100290.28
2023-01-28T15:51:01.689Z,100291.47
2023-01-28T15:53:33.672Z,100297.66
2023-01-28T15:56:07.138Z,100308.47
2023-01-28T15:58:37.319Z,100314.59
2023-01-28T16:01:10.746Z,100309.13
2023-01-28T16:03:40.825Z,100311.31
2023-01-28T16:06:11.369Z,100314.38
2023-01-28T16:08:47.686Z,100322.97
2023-01-28T16:11:25.317Z,100329.75
2023-01-28T16:13:53.322Z,100331.22
2023-01-28T16:16:33.087Z,100327.25
2023-01-28T16:19:03.206Z,100333.34
2023-01-28T16:21:44.811Z,100320.38
2023-01-28T16:24:32.574Z,100336.88
2023-01-28T16:27:07.187Z,100335.87
2023-01-28T16:29:35.556Z,100332.16
2023-01-28T16:32:03.789Z,100343.34
2023-01-28T16:34:31.410Z,100347.12
2023-01-28T16:37:00.187Z,100351.66
2023-01-28T16:39:27.728Z,100353.31
2023-01-28T16:41:56.942Z,100345.72
2023-01-28T16:44:24.734Z,100357.84
2023-01-28T16:46:52.481Z,100357.59
2023-01-28T16:49:19.992Z,100351.12
2023-01-28T16:51:47.673Z,100358.16
2023-01-28T16:54:16.123Z,100360.59
2023-01-28T16:56:46.518Z,100359.41
2023-01-28T16:59:16.296Z,100364.44
2023-01-28T17:01:44.592Z,100356.50
2023-01-28T17:04:13.277Z,100351.44
2023-01-28T17:06:43.366Z,100356.69
2023-01-28T17:09:14.837Z,100356.75
2023-01-28T17:11:42.613Z,100357.72
2023-01-28T17:14:10.803Z,100364.84
2023-01-28T17:16:38.516Z,100362.06
2023-01-28T17:19:06.515Z,100366.66
2023-01-28T17:21:33.976Z,100375.03
2023-01-28T17:24:01.812Z,100376.22
2023-01-28T17:26:29.697Z,100380.47
2023-01-28T17:28:57.149Z,100384.78
2023-01-28T17:31:26.313Z,100380.97
2023-01-28T17:33:55.902Z,100392.09
2023-01-28T17:36:24.818Z,100384.72
2023-01-28T17:38:52.591Z,100395.19
2023-01-28T17:41:20.905Z,100396.34
2023-01-28T17:43:55.355Z,100392.44
2023-01-28T17:46:24.528Z,100401.75
2023-01-28T17:48:52.308Z,100398.72
2023-01-28T17:51:19.972Z,100401.47
2023-01-28T17:53:48.973Z,100406.16
2023-01-28T17:56:21.936Z,100407.34
2023-01-28T17:58:53.943Z,100408.97
2023-01-28T18:01:22.259Z,100408.78
2023-01-28T18:03:49.967Z,100411.19
2023-01-28T18:06:18.066Z,100410.22
2023-01-28T18:08:45.805Z,100417.97
2023-01-28T18:11:15.320Z,100412.19
2023-01-28T18:13:43.171Z,100418.59
2023-01-28T18:16:17.964Z,100426.53
2023-01-28T18:18:46.741Z,100430.66
2023-01-28T18:21:46.407Z,100433.09
2023-01-28T18:24:18.215Z,100428.56
2023-01-28T18:26:45.674Z,100431.41
2023-01-28T18:29:16.768Z,100440.53
2023-01-28T18:31:44.762Z,100442.19
2023-01-28T18:34:12.265Z,100431.78
2023-01-28T18:36:39.693Z,100429.56
2023-01-28T18:39:09.143Z,100430.69
2023-01-28T18:41:36.801Z,100439.66
2023-01-28T18:44:04.727Z,100433.19
2023-01-28T18:46:32.475Z,100438.81
2023-01-28T18:49:00.148Z,100450.91
2023-01-28T18:51:30.448Z,100447.66
2023-01-28T18:53:59.174Z,100448.22
2023-01-28T18:56:28.136Z,100449.44
2023-01-28T18:59:00.469Z,100454.00
2023-01-28T19:01:29.280Z,100457.09
2023-01-28T19:03:57.831Z,100453.31
2023-01-28T19:06:26.699Z,100452.81
2023-01-28T19:08:56.481Z,100462.31
2023-01-28T19:11:25.103Z,100455.62
2023-01-28T19:13:53.042Z,100461.56
2023-01-28T19:16:21.750Z,100460.50
2023-01-28T19:18:54.204Z,100468.28
2023-01-28T19:21:22.851Z,100467.94
2023-01-28T19:23:56.449Z,100471.00
2023-01-28T19:26:25.023Z,100469.81
2023-01-28T19:28:52.792Z,100471.63
2023-01-28T19:31:21.521Z,100474.50
2023-01-28T19:33:53.909Z,100477.84
2023-01-28T19:36:22.019Z,100475.19
2023-01-28T19:38:49.695Z,100479.41
2023-01-28T19:41:17.479Z,100477.41
2023-01-28T19:43:45.272Z,100476.69
2023-01-28T19:46:16.156Z,100479.66
2023-01-28T19:48:44.564Z,100487.75
2023-01-28T19:51:13.153Z,100488.63
2023-01-28T19:53:41.952Z,100490.22
2023-01-28T19:56:12.440Z,100498.97
2023-01-28T19:58:42.032Z,100507.06
2023-01-28T20:01:12.672Z,100500.34
2023-01-28T20:03:40.766Z,100507.50
2023-01-28T20:06:11.720Z,100507.03
2023-01-28T20:08:39.361Z,100511.34
2023-01-28T20:11:09.815Z,100515.91
2023-01-28T20:13:38.502Z,100517.34
2023-01-28T20:16:07.682Z,100512.16
2023-01-28T20:18:35.547Z,100518.16
2023-01-28T20:21:05.336Z,100512.50
2023-01-28T20:23:32.876Z,100508.06
2023-01-28T20:26:03.396Z,100509.47
2023-01-28T20:28:30.996Z,100509.41
2023-01-28T20:31:04.946Z,100519.50
2023-01-28T20:33:32.934Z,100522.41
2023-01-28T20:36:02.038Z,100525.28
2023-01-28T20:38:30.051Z,100522.75
2023-01-28T20:40:57.805Z,100528.25
2023-01-28T20:43:26.168Z,100523.66
2023-01-28T20:45:55.920Z,100523.06
2023-01-28T20:48:23.664Z,100526.19
2023-01-28T20:50:51.085Z,100532.28
2023-01-28T20:53:18.517Z,100528.44
2023-01-28T20:55:55.839Z,100533.19
2023-01-28T20:58:23.309Z,100532.72
2023-01-28T21:00:51.151Z,100539.88
2023-01-28T21:03:19.408Z,100540.34
2023-01-28T21:05:47.892Z,100550.66
2023-01-28T21:08:16.602Z,100548.38
2023-01-28T21:10:44.174Z,100549.41
2023-01-28T21:13:13.669Z,100549.94
2023-01-28T21:15:42.448Z,100548.31
2023-01-28T21:18:09.853Z,100543.72
2023-01-28T21:20:38.136Z,100547.91
2023-01-28T21:23:05.799Z,100550.88
2023-01-28T21:25:33.193Z,100547.72
2023-01-28T21:28:00.607Z,100557.19
2023-01-28T21:30:28.354Z,100559.47
2023-01-28T21:32:55.733Z,100554.22
2023-01-28T21:35:23.512Z,100569.88
2023-01-28T21:37:51.221Z,100560.41
2023-01-28T21:40:18.871Z,100564.38
2023-01-28T21:42:47.246Z,100557.12
2023-01-28T21:45:15.040Z,100566.72
2023-01-28T21:47:42.511Z,100559.47
2023-01-28T21:50:10.472Z,100558.63
2023-01-28T21:52:38.169Z,100565.72
2023-01-28T21:55:05.951Z,100558.53
2023-01-28T21:57:33.454Z,100556.31
2023-01-28T22:00:01.546Z,100557.56
2023-01-28T22:02:39.639Z,100554.91
2023-01-28T22:05:07.580Z,100564.06
2023-01-28T22:07:34.956Z,100555.94
2023-01-28T22:10:02.403Z,100561.88
2023-01-28T22:12:30.079Z,100558.97
2023-01-28T22:14:57.541Z,100560.84
2023-01-28T22:17:25.707Z,100563.78
2023-01-28T22:19:53.443Z,100563.84
2023-01-28T22:22:20.826Z,100568.41
2023-01-28T22:24:48.228Z,100562.69
2023-01-28T22:27:16.089Z,100563.13
2023-01-28T22:29:43.453Z,100572.41
2023-01-28T22:32:10.902Z,100573.81
2023-01-28T22:34:38.594Z,100567.66
2023-01-28T22:37:07.133Z,100579.16
2023-01-28T22:39:34.556Z,100571.66
2023-01-28T22:42:02.242Z,100575.75
2023-01-28T22:44:29.830Z,100576.97
2023-01-28T22:46:57.268Z,100574.22
2023-01-28T22:49:26.720Z,100582.75
2023-01-28T22:51:54.118Z,100584.31
2023-01-28T22:54:21.539Z,100577.94
2023-01-28T22:56:49.212Z,100580.91
2023-01-28T22:59:16.568Z,100602.34
2023-01-28T23:04:12.244Z,100595.31
2023-01-28T23:06:39.701Z,100586.47
2023-01-28T23:09:07.465Z,100585.38
2023-01-28T23:11:35.659Z,100590.78
2023-01-28T23:14:22.488Z,100585.25
2023-01-28T23:17:08.871Z,100589.81
2023-01-28T23:19:54.685Z,100594.91
2023-01-28T23:22:47.349Z,100594.59
2023-01-28T23:25:15.289Z,100598.00
2023-01-28T23:27:43.771Z,100592.91
2023-01-28T23:30:12.035Z,100584.97
2023-01-28T23:32:58.326Z,100593.59
2023-01-28T23:35:26.049Z,100602.09
2023-01-28T23:37:54.196Z,100602.66
2023-01-28T23:40:24.395Z,100606.13
2023-01-28T23:42:52.546Z,100602.31
2023-01-28T23:45:20.853Z,100599.09
2023-01-28T23:47:48.278Z,100597.44
2023-01-28T23:50:16.720Z,100593.84
2023-01-28T23:52:44.324Z,100590.88
2023-01-28T23:55:11.693Z,100598.75
2023-01-28T23:57:39.394Z,100596.69
